createdAt,value
2022-12-18T00:01:06.882Z,102031.80
2022-12-18T00:02:38.818Z,102029.60
2022-12-18T00:04:26.833Z,102027.40
2022-12-18T00:05:58.641Z,102033.00
2022-12-18T00:07:30.477Z,102031.40
2022-12-18T00:09:04.896Z,102029.80
2022-12-18T00:10:36.718Z,102040.80
2022-12-18T00:13:49.760Z,102040.20
2022-12-18T00:15:24.486Z,102045.20
2022-12-18T00:16:59.418Z,102045.40
2022-12-18T00:18:39.479Z,102053.40
2022-12-18T00:20:13.728Z,102052.00
2022-12-18T00:21:46.505Z,102057.40
2022-12-18T00:23:18.664Z,102048.80
2022-12-18T00:24:50.428Z,102050.60
2022-12-18T00:26:33.602Z,102048.20
2022-12-18T00:28:09.305Z,102040.40
2022-12-18T00:29:41.228Z,102040.00
2022-12-18T00:31:18.675Z,102035.00
2022-12-18T00:32:51.342Z,102030.20
2022-12-18T00:34:24.568Z,102025.80
2022-12-18T00:36:12.126Z,102027.00
2022-12-18T00:37:44.952Z,102027.00
2022-12-18T00:39:17.631Z,102023.60
2022-12-18T00:40:50.476Z,102025.40
2022-12-18T00:42:40.955Z,102026.20
2022-12-18T00:44:18.112Z,102033.60
2022-12-18T00:45:53.720Z,102027.00
2022-12-18T00:47:25.624Z,102034.80
2022-12-18T00:48:58.083Z,102035.40
2022-12-18T00:50:29.918Z,102035.00
2022-12-18T00:52:01.800Z,102038.80
2022-12-18T00:53:33.626Z,102035.20
2022-12-18T00:55:06.818Z,102036.80
2022-12-18T00:56:49.591Z,102035.00
2022-12-18T00:58:21.841Z,102039.80
2022-12-18T00:59:53.626Z,102043.40
2022-12-18T01:01:25.622Z,102044.20
2022-12-18T01:02:58.028Z,102053.20
2022-12-18T01:04:34.125Z,102045.80
2022-12-18T01:06:13.098Z,102044.40
2022-12-18T01:07:45.782Z,102041.60
2022-12-18T01:09:17.903Z,102042.40
2022-12-18T01:10:50.178Z,102044.60
2022-12-18T01:12:22.080Z,102043.20
2022-12-18T01:13:56.733Z,102041.60
2022-12-18T01:15:28.586Z,102040.80
2022-12-18T01:17:00.641Z,102042.20
2022-12-18T01:18:32.744Z,102043.40
2022-12-18T01:20:06.056Z,102044.00
2022-12-18T01:21:39.312Z,102047.40
2022-12-18T01:23:11.076Z,102041.40
2022-12-18T01:24:42.836Z,102043.00
2022-12-18T01:26:19.713Z,102039.40
2022-12-18T01:27:57.318Z,102039.20
2022-12-18T01:29:32.349Z,102035.20
2022-12-18T01:31:33.429Z,102036.60
2022-12-18T01:33:08.781Z,102039.60
2022-12-18T01:34:40.982Z,102035.60
2022-12-18T01:36:26.833Z,102039.40
2022-12-18T01:37:58.723Z,102036.60
2022-12-18T01:39:34.031Z,102033.20
2022-12-18T01:41:06.558Z,102027.40
2022-12-18T01:42:38.579Z,102025.60
2022-12-18T01:45:05.823Z,102025.40
2022-12-18T01:46:37.884Z,102025.80
2022-12-18T01:48:10.472Z,102027.00
2022-12-18T01:49:44.011Z,102025.60
2022-12-18T01:51:16.940Z,102029.00
2022-12-18T01:52:56.133Z,102024.60
2022-12-18T01:54:29.870Z,102021.00
2022-12-18T01:56:02.160Z,102024.40
2022-12-18T01:57:34.663Z,102026.20
2022-12-18T01:59:11.145Z,102025.00
2022-12-18T02:00:43.263Z,102026.20
2022-12-18T02:02:17.864Z,102025.00
2022-12-18T02:03:50.624Z,102023.60
2022-12-18T02:05:56.585Z,102023.00
2022-12-18T02:07:53.180Z,102019.00
2022-12-18T02:09:35.562Z,102019.80
2022-12-18T02:11:07.981Z,102015.60
2022-12-18T02:12:57.485Z,102013.60
2022-12-18T02:14:40.125Z,102012.00
2022-12-18T02:16:55.873Z,102005.40
2022-12-18T02:18:37.362Z,102009.20
2022-12-18T02:20:22.811Z,102009.00
2022-12-18T02:22:40.374Z,102014.60
2022-12-18T02:24:17.907Z,102013.20
2022-12-18T02:26:11.648Z,102014.00
2022-12-18T02:27:47.923Z,102006.00
2022-12-18T02:29:31.860Z,102008.20
2022-12-18T02:31:10.628Z,102000.60
2022-12-18T02:32:50.712Z,102009.40
2022-12-18T02:34:29.918Z,102004.00
2022-12-18T02:36:09.131Z,102006.40
2022-12-18T02:37:47.939Z,102001.60
2022-12-18T02:39:23.081Z,101995.80
2022-12-18T02:41:05.241Z,101998.80
2022-12-18T02:42:37.137Z,102000.40
2022-12-18T02:44:14.521Z,101999.40
2022-12-18T02:46:02.108Z,101997.00
2022-12-18T02:47:44.643Z,102002.60
2022-12-18T02:49:40.616Z,102004.20
2022-12-18T02:51:52.758Z,102002.20
2022-12-18T02:53:31.686Z,102002.40
2022-12-18T02:55:24.218Z,102007.00
2022-12-18T02:57:17.800Z,102005.80
2022-12-18T02:59:07.569Z,102007.00
2022-12-18T03:01:27.813Z,102007.80
2022-12-18T03:03:34.373Z,102018.20
2022-12-18T03:05:14.859Z,102014.20
2022-12-18T03:06:56.410Z,102007.60
2022-12-18T03:08:42.914Z,102008.80
2022-12-18T03:10:22.857Z,102007.00
2022-12-18T03:12:21.688Z,102010.60
2022-12-18T03:13:59.513Z,102008.80
2022-12-18T03:15:49.100Z,102010.00
2022-12-18T03:17:28.844Z,102004.60
2022-12-18T03:19:07.694Z,102006.00
2022-12-18T03:20:44.536Z,102008.00
2022-12-18T03:22:19.660Z,102013.00
2022-12-18T03:23:56.173Z,102009.80
2022-12-18T03:25:31.530Z,102010.40
2022-12-18T03:27:08.942Z,102011.20
2022-12-18T03:28:51.884Z,102003.00
2022-12-18T03:30:24.330Z,102007.60
2022-12-18T03:32:12.683Z,102005.00
2022-12-18T03:34:03.225Z,102000.40
2022-12-18T03:35:45.864Z,101993.20
2022-12-18T03:37:18.081Z,101997.00
2022-12-18T03:38:51.294Z,101989.40
2022-12-18T03:40:37.841Z,101984.40
2022-12-18T03:42:23.034Z,101982.80
2022-12-18T03:44:26.984Z,101981.40
2022-12-18T03:46:30.415Z,101984.20
2022-12-18T03:48:21.466Z,101981.40
2022-12-18T03:50:06.128Z,101997.20
2022-12-18T03:51:50.799Z,101992.20
2022-12-18T03:53:52.107Z,101997.80
2022-12-18T03:55:29.885Z,101996.60
2022-12-18T03:57:24.655Z,101989.00
2022-12-18T03:59:01.939Z,101995.60
2022-12-18T04:00:35.978Z,101994.00
2022-12-18T04:02:12.332Z,101991.20
2022-12-18T04:03:50.683Z,101991.80
2022-12-18T04:05:27.039Z,101993.40
2022-12-18T04:07:00.298Z,101999.20
2022-12-18T04:08:35.965Z,101991.00
2022-12-18T04:10:12.787Z,101989.00
2022-12-18T04:11:47.762Z,101990.60
2022-12-18T04:13:35.266Z,101986.00
2022-12-18T04:15:10.298Z,101989.40
2022-12-18T04:16:42.298Z,101988.40
2022-12-18T04:18:16.022Z,101987.40
2022-12-18T04:19:48.186Z,101992.40
2022-12-18T04:21:21.329Z,101986.60
2022-12-18T04:22:53.943Z,101990.20
2022-12-18T04:24:26.569Z,101985.60
2022-12-18T04:26:09.489Z,101985.80
2022-12-18T04:27:48.800Z,101990.40
2022-12-18T04:29:20.691Z,101984.20
2022-12-18T04:31:04.898Z,101988.40
2022-12-18T04:32:37.243Z,101981.80
2022-12-18T04:34:10.818Z,101984.80
2022-12-18T04:35:47.290Z,101980.80
2022-12-18T04:37:19.370Z,101984.20
2022-12-18T04:38:53.215Z,101988.40
2022-12-18T04:40:25.850Z,101984.00
2022-12-18T04:41:57.858Z,101984.40
2022-12-18T04:43:33.932Z,101991.80
2022-12-18T04:45:06.737Z,101990.80
2022-12-18T04:46:38.638Z,101989.60
2022-12-18T04:48:10.505Z,101990.40
2022-12-18T04:49:42.838Z,101983.40
2022-12-18T04:51:15.068Z,101983.60
2022-12-18T04:52:46.932Z,101984.40
2022-12-18T04:54:19.089Z,101981.60
2022-12-18T04:55:51.140Z,101984.00
2022-12-18T04:57:22.998Z,101979.00
2022-12-18T04:58:54.778Z,101981.20
2022-12-18T05:00:27.120Z,101978.80
2022-12-18T05:01:59.618Z,101979.00
2022-12-18T05:03:31.853Z,101972.60
2022-12-18T05:05:05.746Z,101972.40
2022-12-18T05:06:37.966Z,101971.00
2022-12-18T05:08:09.768Z,101967.80
2022-12-18T05:09:42.768Z,101960.60
2022-12-18T05:11:19.598Z,101960.60
2022-12-18T05:13:01.268Z,101954.40
2022-12-18T05:14:33.982Z,101953.40
2022-12-18T05:16:06.754Z,101950.00
2022-12-18T05:17:38.796Z,101944.80
2022-12-18T05:19:10.677Z,101950.40
2022-12-18T05:20:43.079Z,101947.80
2022-12-18T05:22:15.094Z,101947.60
2022-12-18T05:23:47.146Z,101944.40
2022-12-18T05:25:19.777Z,101947.40
2022-12-18T05:26:52.871Z,101943.00
2022-12-18T05:28:27.080Z,101940.80
2022-12-18T05:29:58.836Z,101943.00
2022-12-18T05:31:34.566Z,101942.60
2022-12-18T05:33:09.405Z,101942.40
2022-12-18T05:34:45.788Z,101938.00
2022-12-18T05:36:19.179Z,101936.60
2022-12-18T05:37:54.153Z,101941.40
2022-12-18T05:39:26.433Z,101940.00
2022-12-18T05:41:00.680Z,101942.80
2022-12-18T05:42:32.660Z,101943.40
2022-12-18T05:44:04.709Z,101947.00
2022-12-18T05:45:39.649Z,101950.80
2022-12-18T05:47:11.533Z,101950.20
2022-12-18T05:48:45.358Z,101957.00
2022-12-18T05:50:17.194Z,101961.20
2022-12-18T05:51:49.309Z,101969.40
2022-12-18T05:53:22.129Z,101969.80
2022-12-18T05:54:53.982Z,101970.80
2022-12-18T05:56:26.084Z,101973.80
2022-12-18T05:57:57.971Z,101974.60
2022-12-18T05:59:31.686Z,101979.60
2022-12-18T06:01:21.527Z,101975.00
2022-12-18T06:02:53.646Z,101969.20
2022-12-18T06:04:30.768Z,101971.80
2022-12-18T06:06:02.880Z,101972.20
2022-12-18T06:07:34.943Z,101975.60
2022-12-18T06:09:09.362Z,101983.40
2022-12-18T06:10:43.156Z,101982.80
2022-12-18T06:12:15.005Z,101979.00
2022-12-18T06:13:53.512Z,101985.00
2022-12-18T06:15:29.426Z,101986.40
2022-12-18T06:17:01.354Z,101989.40
2022-12-18T06:18:33.530Z,101989.20
2022-12-18T06:20:07.254Z,102001.60
2022-12-18T06:21:39.052Z,102002.00
2022-12-18T06:23:10.934Z,102004.60
2022-12-18T06:24:43.155Z,102008.80
2022-12-18T06:26:15.149Z,102009.80
2022-12-18T06:27:49.025Z,102015.00
2022-12-18T06:29:21.018Z,102015.00
2022-12-18T06:30:54.110Z,102017.00
2022-12-18T06:32:28.472Z,102017.00
2022-12-18T06:34:04.465Z,102019.60
2022-12-18T06:35:40.317Z,102016.20
2022-12-18T06:37:12.144Z,102016.40
2022-12-18T06:38:45.559Z,102017.60
2022-12-18T06:40:17.892Z,102007.60
2022-12-18T06:41:49.773Z,102010.40
2022-12-18T06:43:22.761Z,102011.80
2022-12-18T06:44:56.029Z,102007.80
2022-12-18T06:46:28.626Z,102011.00
2022-12-18T06:48:01.105Z,102003.40
2022-12-18T06:49:33.055Z,102003.80
2022-12-18T06:51:07.046Z,102001.20
2022-12-18T06:52:40.086Z,102001.00
2022-12-18T06:54:12.345Z,101996.40
2022-12-18T06:55:45.030Z,101996.20
2022-12-18T06:57:17.717Z,101991.20
2022-12-18T06:58:51.127Z,101989.40
2022-12-18T07:00:22.998Z,101988.60
2022-12-18T07:01:55.032Z,101978.40
2022-12-18T07:03:27.462Z,101973.40
2022-12-18T07:04:59.762Z,101979.20
2022-12-18T07:06:36.013Z,101975.00
2022-12-18T07:08:08.670Z,101978.80
2022-12-18T07:09:42.141Z,101976.60
2022-12-18T07:11:15.143Z,101968.20
2022-12-18T07:12:47.281Z,101971.60
2022-12-18T07:14:19.200Z,101971.20
2022-12-18T07:15:51.534Z,101969.20
2022-12-18T07:17:23.521Z,101967.20
2022-12-18T07:18:57.494Z,101971.00
2022-12-18T07:20:29.385Z,101968.20
2022-12-18T07:22:02.495Z,101968.00
2022-12-18T07:23:37.770Z,101965.00
2022-12-18T07:25:10.169Z,101966.20
2022-12-18T07:26:42.046Z,101961.60
2022-12-18T07:28:17.597Z,101967.40
2022-12-18T07:29:50.151Z,101965.00
2022-12-18T07:31:25.921Z,101967.00
2022-12-18T07:32:57.955Z,101956.20
2022-12-18T07:34:29.813Z,101961.00
2022-12-18T07:36:04.625Z,101959.00
2022-12-18T07:37:38.519Z,101952.00
2022-12-18T07:39:13.892Z,101947.60
2022-12-18T07:40:50.183Z,101961.80
2022-12-18T07:42:35.920Z,101960.40
2022-12-18T07:44:12.016Z,101953.80
2022-12-18T07:45:45.855Z,101960.60
2022-12-18T07:47:18.504Z,101955.00
2022-12-18T07:48:51.149Z,101951.60
2022-12-18T07:50:23.591Z,101952.80
2022-12-18T07:52:00.861Z,101950.80
2022-12-18T07:53:39.011Z,101946.60
2022-12-18T07:55:16.671Z,101944.40
2022-12-18T07:56:48.634Z,101948.20
2022-12-18T07:58:20.518Z,101954.20
2022-12-18T07:59:52.223Z,101962.20
2022-12-18T08:01:24.438Z,101966.80
2022-12-18T08:02:56.576Z,101962.00
2022-12-18T08:04:28.592Z,101966.80
2022-12-18T08:06:02.769Z,101964.00
2022-12-18T08:07:34.492Z,101961.20
2022-12-18T08:09:06.596Z,101960.60
2022-12-18T08:10:40.232Z,101959.20
2022-12-18T08:12:11.997Z,101958.60
2022-12-18T08:13:43.865Z,101962.20
2022-12-18T08:15:15.823Z,101959.00
2022-12-18T08:16:47.760Z,101959.20
2022-12-18T08:18:19.613Z,101961.20
2022-12-18T08:19:51.317Z,101963.80
2022-12-18T08:21:30.735Z,101955.00
2022-12-18T08:23:02.481Z,101951.80
2022-12-18T08:24:34.211Z,101942.60
2022-12-18T08:26:06.641Z,101941.40
2022-12-18T08:27:38.424Z,101939.00
2022-12-18T08:29:11.715Z,101930.80
2022-12-18T08:30:43.544Z,101928.60
2022-12-18T08:32:15.713Z,101923.00
2022-12-18T08:33:50.890Z,101919.20
2022-12-18T08:35:22.618Z,101917.60
2022-12-18T08:36:54.366Z,101918.00
2022-12-18T08:38:26.315Z,101914.60
2022-12-18T08:39:58.089Z,101909.00
2022-12-18T08:41:29.838Z,101911.20
2022-12-18T08:43:20.988Z,101903.80
2022-12-18T08:44:52.815Z,101897.80
2022-12-18T08:46:27.973Z,101901.20
2022-12-18T08:47:59.833Z,101894.00
2022-12-18T08:49:34.695Z,101889.60
2022-12-18T08:51:06.657Z,101897.40
2022-12-18T08:52:38.493Z,101893.80
2022-12-18T08:54:14.771Z,101899.80
2022-12-18T08:55:50.181Z,101901.80
2022-12-18T08:57:22.236Z,101902.60
2022-12-18T08:58:55.773Z,101900.20
2022-12-18T09:00:27.993Z,101906.60
2022-12-18T09:02:00.086Z,101896.20
2022-12-18T09:03:32.037Z,101897.20
2022-12-18T09:05:04.598Z,101890.60
2022-12-18T09:06:38.573Z,101896.40
2022-12-18T09:08:11.806Z,101892.20
2022-12-18T09:09:43.748Z,101899.60
2022-12-18T09:11:21.584Z,101896.40
2022-12-18T09:12:53.353Z,101894.00
2022-12-18T09:14:25.762Z,101888.20
2022-12-18T09:15:57.953Z,101888.80
2022-12-18T09:17:29.931Z,101880.00
2022-12-18T09:19:05.545Z,101883.60
2022-12-18T09:20:38.666Z,101883.80
2022-12-18T09:22:10.784Z,101879.80
2022-12-18T09:23:43.396Z,101875.40
2022-12-18T09:25:17.089Z,101864.80
2022-12-18T09:26:49.383Z,101858.20
2022-12-18T09:28:23.071Z,101859.00
2022-12-18T09:29:54.823Z,101865.60
2022-12-18T09:31:26.637Z,101872.80
2022-12-18T09:32:58.345Z,101873.00
2022-12-18T09:34:30.066Z,101871.00
2022-12-18T09:36:04.937Z,101862.20
2022-12-18T09:37:36.655Z,101855.00
2022-12-18T09:39:09.177Z,101853.60
2022-12-18T09:54:05.622Z,101881.00
2022-12-18T09:55:47.684Z,101880.20
2022-12-18T09:57:27.937Z,101885.00
2022-12-18T09:59:03.022Z,101888.00
2022-12-18T10:00:35.725Z,101884.00
2022-12-18T10:02:26.314Z,101878.80
2022-12-18T10:03:59.637Z,101879.60
2022-12-18T10:06:02.734Z,101878.00
2022-12-18T10:08:03.179Z,101878.20
2022-12-18T10:09:58.842Z,101875.80
2022-12-18T10:12:04.581Z,101863.80
2022-12-18T10:14:10.913Z,101856.80
2022-12-18T10:16:04.239Z,101846.20
2022-12-18T10:17:44.987Z,101841.20
2022-12-18T10:19:32.197Z,101838.20
2022-12-18T10:21:16.619Z,101830.20
2022-12-18T10:23:50.243Z,101827.80
2022-12-18T10:25:38.379Z,101824.40
2022-12-18T10:27:26.761Z,101829.80
2022-12-18T10:29:05.312Z,101834.20
2022-12-18T10:30:40.654Z,101822.60
2022-12-18T10:32:42.228Z,101824.60
2022-12-18T10:34:14.649Z,101823.00
2022-12-18T10:35:51.641Z,101817.40
2022-12-18T10:37:28.121Z,101821.20
2022-12-18T10:39:39.013Z,101818.20
2022-12-18T10:41:24.483Z,101807.60
2022-12-18T10:43:39.860Z,101801.80
2022-12-18T10:45:21.118Z,101797.80
2022-12-18T10:47:11.654Z,101793.20
2022-12-18T10:48:49.589Z,101795.00
2022-12-18T10:51:09.220Z,101792.60
2022-12-18T10:52:29.728Z,101797.80
2022-12-18T10:54:24.121Z,101792.20
2022-12-18T10:56:03.237Z,101791.40
2022-12-18T10:57:38.373Z,101787.60
2022-12-18T10:59:16.054Z,101791.20
2022-12-18T11:01:17.915Z,101796.20
2022-12-18T11:02:50.985Z,101790.60
2022-12-18T11:04:30.016Z,101791.80
2022-12-18T11:06:25.744Z,101783.00
2022-12-18T11:08:00.683Z,101782.20
2022-12-18T11:09:36.648Z,101777.60
2022-12-18T11:11:29.841Z,101775.40
2022-12-18T11:13:26.058Z,101775.40
2022-12-18T11:15:00.987Z,101766.60
2022-12-18T11:17:03.180Z,101764.20
2022-12-18T11:18:37.655Z,101756.60
2022-12-18T11:20:35.654Z,101767.40
2022-12-18T11:22:27.861Z,101772.80
2022-12-18T11:24:02.239Z,101771.80
2022-12-18T11:25:36.133Z,101767.40
2022-12-18T11:27:20.745Z,101763.80
2022-12-18T11:29:10.350Z,101754.60
2022-12-18T11:30:42.460Z,101755.00
2022-12-18T11:32:16.289Z,101754.00
2022-12-18T11:34:29.025Z,101748.00
2022-12-18T11:36:05.739Z,101745.00
2022-12-18T11:37:42.930Z,101741.40
2022-12-18T11:39:50.345Z,101742.40
2022-12-18T11:41:54.046Z,101739.40
2022-12-18T11:44:03.397Z,101732.40
2022-12-18T11:45:55.236Z,101730.60
2022-12-18T11:47:42.703Z,101723.80
2022-12-18T11:49:30.878Z,101719.80
2022-12-18T11:51:16.971Z,101720.00
2022-12-18T11:52:54.409Z,101707.00
2022-12-18T11:54:30.179Z,101704.80
2022-12-18T11:57:04.892Z,101700.00
2022-12-18T11:58:48.350Z,101706.20
2022-12-18T12:00:22.250Z,101706.60
2022-12-18T12:02:41.231Z,101702.40
2022-12-18T12:04:38.978Z,101698.40
2022-12-18T12:06:30.114Z,101699.00
2022-12-18T12:08:24.138Z,101694.80
2022-12-18T12:10:25.059Z,101695.60
2022-12-18T12:12:18.272Z,101695.80
2022-12-18T12:14:02.374Z,101694.20
2022-12-18T12:16:02.438Z,101694.20
2022-12-18T12:18:00.506Z,101697.40
2022-12-18T12:19:41.188Z,101693.00
2022-12-18T12:21:43.721Z,101694.20
2022-12-18T12:23:50.853Z,101687.80
2022-12-18T12:25:45.458Z,101688.60
2022-12-18T12:27:44.901Z,101690.00
2022-12-18T12:29:41.945Z,101685.60
2022-12-18T12:31:46.274Z,101692.40
2022-12-18T12:33:51.619Z,101685.00
2022-12-18T12:36:11.872Z,101680.00
2022-12-18T12:37:55.246Z,101678.40
2022-12-18T12:39:43.656Z,101674.40
2022-12-18T12:41:42.833Z,101676.00
2022-12-18T12:43:47.876Z,101672.00
2022-12-18T12:45:41.189Z,101666.80
2022-12-18T12:47:43.032Z,101662.00
2022-12-18T12:49:22.088Z,101656.20
2022-12-18T12:50:57.260Z,101658.80
2022-12-18T12:52:37.099Z,101658.00
2022-12-18T12:54:36.641Z,101657.20
2022-12-18T12:56:14.200Z,101655.80
2022-12-18T12:58:16.233Z,101660.80
2022-12-18T13:00:12.871Z,101661.40
2022-12-18T13:02:16.038Z,101662.80
2022-12-18T13:04:07.303Z,101659.20
2022-12-18T13:05:53.826Z,101655.60
2022-12-18T13:07:47.172Z,101661.60
2022-12-18T13:09:19.100Z,101660.60
2022-12-18T13:11:13.976Z,101654.80
2022-12-18T13:13:17.121Z,101653.20
2022-12-18T13:15:14.095Z,101649.20
2022-12-18T13:16:46.074Z,101645.60
2022-12-18T13:18:26.463Z,101652.20
2022-12-18T13:20:12.206Z,101654.40
2022-12-18T13:21:55.715Z,101652.00
2022-12-18T13:23:34.072Z,101646.80
2022-12-18T13:25:35.470Z,101648.80
2022-12-18T13:28:04.715Z,101648.20
2022-12-18T13:29:45.452Z,101642.80
2022-12-18T13:31:42.623Z,101646.80
2022-12-18T13:33:15.273Z,101639.20
2022-12-18T13:34:47.604Z,101642.40
2022-12-18T13:36:36.231Z,101636.20
2022-12-18T13:38:27.315Z,101646.00
2022-12-18T13:39:59.223Z,101644.60
2022-12-18T13:41:31.418Z,101647.20
2022-12-18T13:43:21.224Z,101648.20
2022-12-18T13:44:53.175Z,101643.20
2022-12-18T13:46:43.751Z,101643.80
2022-12-18T13:48:23.947Z,101647.80
2022-12-18T13:49:58.095Z,101644.80
2022-12-18T13:51:35.709Z,101640.80
2022-12-18T13:53:08.207Z,101637.80
2022-12-18T13:54:48.998Z,101636.20
2022-12-18T13:56:33.159Z,101638.20
2022-12-18T13:58:07.336Z,101631.80
2022-12-18T13:59:41.003Z,101625.00
2022-12-18T14:01:25.476Z,101624.20
2022-12-18T14:03:00.435Z,101620.00
2022-12-18T14:04:36.706Z,101617.00
2022-12-18T14:06:10.285Z,101616.60
2022-12-18T14:07:45.151Z,101617.20
2022-12-18T14:09:31.033Z,101611.60
2022-12-18T14:11:08.300Z,101610.60
2022-12-18T14:13:00.708Z,101597.20
2022-12-18T14:14:35.729Z,101592.20
2022-12-18T14:16:09.428Z,101583.00
2022-12-18T14:17:41.881Z,101586.40
2022-12-18T14:19:18.727Z,101586.00
2022-12-18T14:20:54.902Z,101584.20
2022-12-18T14:22:30.515Z,101578.40
2022-12-18T14:24:23.954Z,101577.00
2022-12-18T14:25:58.616Z,101575.60
2022-12-18T14:27:40.156Z,101568.40
2022-12-18T14:29:29.599Z,101559.00
2022-12-18T14:31:01.631Z,101557.40
2022-12-18T14:32:33.554Z,101551.40
2022-12-18T14:34:05.566Z,101550.00
2022-12-18T14:35:41.780Z,101550.40
2022-12-18T14:37:18.216Z,101552.40
2022-12-18T14:38:54.948Z,101555.40
2022-12-18T14:40:27.096Z,101552.40
2022-12-18T14:41:58.972Z,101552.80
2022-12-18T14:43:40.768Z,101551.20
2022-12-18T14:45:43.535Z,101551.80
2022-12-18T14:47:17.627Z,101551.60
2022-12-18T14:48:51.837Z,101546.20
2022-12-18T14:50:24.856Z,101546.80
2022-12-18T14:52:30.797Z,101544.80
2022-12-18T14:54:18.163Z,101547.00
2022-12-18T14:55:51.430Z,101544.80
2022-12-18T14:57:39.403Z,101543.00
2022-12-18T14:59:25.303Z,101541.80
2022-12-18T15:00:57.546Z,101537.00
2022-12-18T15:02:30.341Z,101538.00
2022-12-18T15:04:08.892Z,101538.20
2022-12-18T15:05:42.503Z,101534.60
2022-12-18T15:07:24.276Z,101534.40
2022-12-18T15:08:59.033Z,101531.80
2022-12-18T15:10:47.989Z,101529.40
2022-12-18T15:12:36.282Z,101530.20
2022-12-18T15:14:42.805Z,101528.60
2022-12-18T15:16:14.970Z,101526.40
2022-12-18T15:17:47.362Z,101530.00
2022-12-18T15:19:22.684Z,101531.00
2022-12-18T15:21:03.714Z,101532.40
2022-12-18T15:22:38.145Z,101537.20
2022-12-18T15:24:32.882Z,101533.40
2022-12-18T15:26:15.722Z,101530.40
2022-12-18T15:27:49.841Z,101524.40
2022-12-18T15:29:27.589Z,101523.00
2022-12-18T15:31:32.152Z,101522.60
2022-12-18T15:33:28.292Z,101517.40
2022-12-18T15:35:13.658Z,101517.60
2022-12-18T15:36:45.930Z,101511.00
2022-12-18T15:38:18.615Z,101521.00
2022-12-18T15:39:51.865Z,101521.60
2022-12-18T15:41:26.106Z,101517.40
2022-12-18T15:43:17.005Z,101511.40
2022-12-18T15:44:50.455Z,101509.20
2022-12-18T15:46:27.052Z,101507.80
2022-12-18T15:48:04.693Z,101505.20
2022-12-18T15:49:36.999Z,101504.60
2022-12-18T15:51:28.719Z,101501.40
2022-12-18T15:53:02.021Z,101499.00
2022-12-18T15:55:03.456Z,101499.60
2022-12-18T15:56:54.225Z,101504.00
2022-12-18T15:58:27.314Z,101501.00
2022-12-18T15:59:59.569Z,101501.40
2022-12-18T16:01:32.898Z,101494.40
2022-12-18T16:03:06.274Z,101499.80
2022-12-18T16:04:38.529Z,101498.20
2022-12-18T16:06:12.125Z,101491.80
2022-12-18T16:07:45.793Z,101494.20
2022-12-18T16:09:21.757Z,101497.20
2022-12-18T16:10:59.424Z,101496.40
2022-12-18T16:12:32.170Z,101494.40
2022-12-18T16:14:25.103Z,101489.60
2022-12-18T16:15:57.305Z,101488.40
2022-12-18T16:17:29.412Z,101487.00
2022-12-18T16:19:02.080Z,101489.60
2022-12-18T16:20:35.761Z,101492.40
2022-12-18T16:22:23.458Z,101488.40
2022-12-18T16:23:55.396Z,101493.60
2022-12-18T16:25:30.135Z,101492.00
2022-12-18T16:27:02.068Z,101483.80
2022-12-18T16:28:33.980Z,101481.00
2022-12-18T16:30:07.153Z,101484.40
2022-12-18T16:31:39.373Z,101489.80
2022-12-18T16:33:14.703Z,101491.00
2022-12-18T16:34:48.915Z,101490.20
2022-12-18T16:36:20.852Z,101493.40
2022-12-18T16:37:53.334Z,101488.20
2022-12-18T16:39:29.145Z,101489.00
2022-12-18T16:41:19.734Z,101496.40
2022-12-18T16:42:51.942Z,101491.00
2022-12-18T16:44:26.411Z,101494.40
2022-12-18T16:46:00.556Z,101496.80
2022-12-18T16:47:33.306Z,101498.40
2022-12-18T16:49:05.783Z,101501.40
2022-12-18T16:50:37.615Z,101499.80
2022-12-18T16:52:09.671Z,101502.80
2022-12-18T16:53:42.972Z,101500.80
2022-12-18T16:55:18.770Z,101495.80
2022-12-18T16:56:52.271Z,101502.80
2022-12-18T16:58:24.246Z,101503.00
2022-12-18T17:00:01.325Z,101502.60
2022-12-18T17:01:36.565Z,101507.80
2022-12-18T17:03:09.073Z,101501.60
2022-12-18T17:04:42.086Z,101493.80
2022-12-18T17:06:15.347Z,101494.20
2022-12-18T17:07:48.690Z,101481.60
2022-12-18T17:09:25.611Z,101479.60
2022-12-18T17:11:03.607Z,101475.00
2022-12-18T17:12:37.367Z,101464.00
2022-12-18T17:14:42.385Z,101461.40
2022-12-18T17:16:14.977Z,101457.60
2022-12-18T17:17:50.500Z,101455.80
2022-12-18T17:19:24.075Z,101451.80
2022-12-18T17:21:01.274Z,101448.20
2022-12-18T17:22:33.226Z,101451.80
2022-12-18T17:24:08.261Z,101450.00
2022-12-18T17:25:41.042Z,101440.60
2022-12-18T17:27:13.168Z,101441.40
2022-12-18T17:28:45.122Z,101447.20
2022-12-18T17:30:17.194Z,101446.00
2022-12-18T17:31:49.719Z,101446.00
2022-12-18T17:33:25.330Z,101442.60
2022-12-18T17:34:57.287Z,101443.80
2022-12-18T17:36:32.098Z,101442.80
2022-12-18T17:38:06.081Z,101449.00
2022-12-18T17:39:38.449Z,101447.00
2022-12-18T17:41:12.149Z,101442.80
2022-12-18T17:42:45.553Z,101446.80
2022-12-18T17:44:18.312Z,101443.00
2022-12-18T17:45:50.671Z,101444.40
2022-12-18T17:47:22.526Z,101445.80
2022-12-18T17:48:56.697Z,101450.60
2022-12-18T17:50:34.527Z,101454.00
2022-12-18T17:52:07.865Z,101456.60
2022-12-18T17:53:40.352Z,101462.80
2022-12-18T17:55:13.211Z,101456.00
2022-12-18T17:56:46.170Z,101460.20
2022-12-18T17:58:18.309Z,101464.60
2022-12-18T17:59:51.082Z,101468.00
2022-12-18T18:01:25.594Z,101459.40
2022-12-18T18:02:57.908Z,101466.40
2022-12-18T18:04:31.146Z,101460.40
2022-12-18T18:06:03.982Z,101458.20
2022-12-18T18:07:35.985Z,101458.80
2022-12-18T18:09:11.779Z,101452.20
2022-12-18T18:10:51.905Z,101454.40
2022-12-18T18:12:42.420Z,101454.40
2022-12-18T18:14:21.391Z,101454.00
2022-12-18T18:15:59.500Z,101444.80
2022-12-18T18:17:31.472Z,101442.00
2022-12-18T18:19:12.473Z,101448.40
2022-12-18T18:20:46.518Z,101452.00
2022-12-18T18:22:20.340Z,101453.40
2022-12-18T18:23:52.422Z,101451.80
2022-12-18T18:25:25.044Z,101449.80
2022-12-18T18:27:00.065Z,101447.40
2022-12-18T18:28:33.448Z,101443.40
2022-12-18T18:30:06.997Z,101446.20
2022-12-18T18:31:40.692Z,101454.20
2022-12-18T18:33:13.349Z,101455.60
2022-12-18T18:34:45.365Z,101462.80
2022-12-18T18:36:17.415Z,101460.60
2022-12-18T18:37:49.540Z,101466.00
2022-12-18T18:39:23.831Z,101465.20
2022-12-18T18:41:02.815Z,101469.60
2022-12-18T18:42:34.822Z,101473.20
2022-12-18T18:44:07.850Z,101472.20
2022-12-18T18:45:39.809Z,101470.20
2022-12-18T18:47:14.209Z,101467.80
2022-12-18T18:48:46.136Z,101468.00
2022-12-18T18:50:18.225Z,101458.20
2022-12-18T18:51:58.262Z,101462.20
2022-12-18T18:53:31.260Z,101465.20
2022-12-18T18:55:13.211Z,101468.00
2022-12-18T18:57:18.951Z,101470.00
2022-12-18T18:58:38.432Z,101473.20
2022-12-18T19:00:12.281Z,101469.60
2022-12-18T19:01:44.793Z,101466.40
2022-12-18T19:03:20.640Z,101468.00
2022-12-18T19:04:54.334Z,101473.60